sensor_id;sensor_type;location;lat;lon;timestamp;P1;durP1;ratioP1;P2;durP2;ratioP2
5987;SDS011;3021;51.000;6.980;2024-02-26T00:01:47;3.47;;;1.98;;
5987;SDS011;3021;51.000;6.980;2024-02-26T00:04:13;3.03;;;2.00;;
5987;SDS011;3021;51.000;6.980;2024-02-26T00:06:39;4.53;;;1.90;;
5987;SDS011;3021;51.000;6.980;2024-02-26T00:09:08;4.38;;;1.95;;
5987;SDS011;3021;51.000;6.980;2024-02-26T00:11:35;3.40;;;2.08;;
5987;SDS011;3021;51.000;6.980;2024-02-26T00:14:01;3.55;;;1.67;;
5987;SDS011;3021;51.000;6.980;2024-02-26T00:16:26;3.05;;;1.70;;
5987;SDS011;3021;51.000;6.980;2024-02-26T00:18:52;4.88;;;1.42;;
5987;SDS011;3021;51.000;6.980;2024-02-26T00:21:17;3.55;;;1.80;;
5987;SDS011;3021;51.000;6.980;2024-02-26T00:23:43;3.28;;;1.58;;
5987;SDS011;3021;51.000;6.980;2024-02-26T00:26:08;2.75;;;1.50;;
5987;SDS011;3021;51.000;6.980;2024-02-26T00:28:35;1.55;;;1.20;;
5987;SDS011;3021;51.000;6.980;2024-02-26T00:31:01;2.20;;;1.55;;
5987;SDS011;3021;51.000;6.980;2024-02-26T00:33:26;3.28;;;1.52;;
5987;SDS011;3021;51.000;6.980;2024-02-26T00:35:51;4.50;;;1.20;;
5987;SDS011;3021;51.000;6.980;2024-02-26T00:38:17;1.92;;;1.15;;
5987;SDS011;3021;51.000;6.980;2024-02-26T00:40:42;1.85;;;1.08;;
5987;SDS011;3021;51.000;6.980;2024-02-26T00:43:07;2.75;;;1.48;;
5987;SDS011;3021;51.000;6.980;2024-02-26T00:45:32;2.95;;;1.23;;
5987;SDS011;3021;51.000;6.980;2024-02-26T00:47:58;1.73;;;1.30;;
5987;SDS011;3021;51.000;6.980;2024-02-26T00:50:26;2.95;;;1.10;;
5987;SDS011;3021;51.000;6.980;2024-02-26T00:52:51;2.22;;;1.27;;
5987;SDS011;3021;51.000;6.980;2024-02-26T00:55:17;2.05;;;1.45;;
5987;SDS011;3021;51.000;6.980;2024-02-26T00:57:42;1.30;;;1.05;;
5987;SDS011;3021;51.000;6.980;2024-02-26T01:00:07;1.67;;;1.10;;
5987;SDS011;3021;51.000;6.980;2024-02-26T01:02:36;5.15;;;1.30;;
5987;SDS011;3021;51.000;6.980;2024-02-26T01:05:02;1.98;;;1.20;;
5987;SDS011;3021;51.000;6.980;2024-02-26T01:07:27;1.42;;;1.02;;
5987;SDS011;3021;51.000;6.980;2024-02-26T01:09:53;2.50;;;1.25;;
5987;SDS011;3021;51.000;6.980;2024-02-26T01:12:18;2.28;;;1.20;;
5987;SDS011;3021;51.000;6.980;2024-02-26T01:14:43;1.45;;;1.20;;
5987;SDS011;3021;51.000;6.980;2024-02-26T01:17:09;2.47;;;1.42;;
5987;SDS011;3021;51.000;6.980;2024-02-26T01:19:34;4.85;;;1.17;;
5987;SDS011;3021;51.000;6.980;2024-02-26T01:21:59;3.17;;;1.20;;
5987;SDS011;3021;51.000;6.980;2024-02-26T01:24:25;3.35;;;1.10;;
5987;SDS011;3021;51.000;6.980;2024-02-26T01:26:50;1.48;;;1.20;;
5987;SDS011;3021;51.000;6.980;2024-02-26T01:29:15;1.30;;;1.08;;
5987;SDS011;3021;51.000;6.980;2024-02-26T01:31:41;2.05;;;1.30;;
5987;SDS011;3021;51.000;6.980;2024-02-26T01:34:06;2.50;;;1.27;;
5987;SDS011;3021;51.000;6.980;2024-02-26T01:36:31;2.60;;;1.25;;
5987;SDS011;3021;51.000;6.980;2024-02-26T01:38:57;3.67;;;1.42;;
5987;SDS011;3021;51.000;6.980;2024-02-26T01:41:22;3.20;;;1.33;;
5987;SDS011;3021;51.000;6.980;2024-02-26T01:43:48;1.58;;;0.80;;
5987;SDS011;3021;51.000;6.980;2024-02-26T01:46:14;3.03;;;1.10;;
5987;SDS011;3021;51.000;6.980;2024-02-26T01:48:41;1.50;;;1.00;;
5987;SDS011;3021;51.000;6.980;2024-02-26T01:51:07;2.03;;;1.02;;
5987;SDS011;3021;51.000;6.980;2024-02-26T01:53:33;2.35;;;1.08;;
5987;SDS011;3021;51.000;6.980;2024-02-26T01:56:00;1.77;;;1.00;;
5987;SDS011;3021;51.000;6.980;2024-02-26T01:58:25;1.00;;;0.93;;
5987;SDS011;3021;51.000;6.980;2024-02-26T02:00:51;1.52;;;1.08;;
5987;SDS011;3021;51.000;6.980;2024-02-26T02:03:16;1.35;;;1.10;;
5987;SDS011;3021;51.000;6.980;2024-02-26T02:05:42;1.27;;;0.85;;
5987;SDS011;3021;51.000;6.980;2024-02-26T02:08:08;4.32;;;1.20;;
5987;SDS011;3021;51.000;6.980;2024-02-26T02:10:36;1.48;;;1.15;;
5987;SDS011;3021;51.000;6.980;2024-02-26T02:13:03;5.22;;;1.05;;
5987;SDS011;3021;51.000;6.980;2024-02-26T02:15:28;1.85;;;0.90;;
5987;SDS011;3021;51.000;6.980;2024-02-26T02:17:54;0.88;;;0.77;;
5987;SDS011;3021;51.000;6.980;2024-02-26T02:20:19;2.85;;;1.33;;
5987;SDS011;3021;51.000;6.980;2024-02-26T02:22:49;2.15;;;1.02;;
5987;SDS011;3021;51.000;6.980;2024-02-26T02:25:15;1.27;;;1.08;;
5987;SDS011;3021;51.000;6.980;2024-02-26T02:27:40;1.42;;;1.30;;
5987;SDS011;3021;51.000;6.980;2024-02-26T02:30:07;2.17;;;1.52;;
5987;SDS011;3021;51.000;6.980;2024-02-26T02:32:34;1.83;;;1.10;;
5987;SDS011;3021;51.000;6.980;2024-02-26T02:35:02;1.27;;;1.10;;
5987;SDS011;3021;51.000;6.980;2024-02-26T02:37:28;2.05;;;1.05;;
5987;SDS011;3021;51.000;6.980;2024-02-26T02:39:54;1.48;;;1.02;;
5987;SDS011;3021;51.000;6.980;2024-02-26T02:42:20;2.72;;;0.85;;
5987;SDS011;3021;51.000;6.980;2024-02-26T02:44:45;3.22;;;1.05;;
5987;SDS011;3021;51.000;6.980;2024-02-26T02:47:10;1.92;;;1.05;;
5987;SDS011;3021;51.000;6.980;2024-02-26T02:49:35;3.47;;;1.17;;
5987;SDS011;3021;51.000;6.980;2024-02-26T02:52:01;1.25;;;1.15;;
5987;SDS011;3021;51.000;6.980;2024-02-26T02:54:26;1.20;;;1.00;;
5987;SDS011;3021;51.000;6.980;2024-02-26T02:56:52;3.03;;;1.20;;
5987;SDS011;3021;51.000;6.980;2024-02-26T02:59:17;2.88;;;1.30;;
5987;SDS011;3021;51.000;6.980;2024-02-26T03:01:42;1.77;;;1.23;;
5987;SDS011;3021;51.000;6.980;2024-02-26T03:04:08;1.08;;;0.90;;
5987;SDS011;3021;51.000;6.980;2024-02-26T03:06:33;2.58;;;1.42;;
5987;SDS011;3021;51.000;6.980;2024-02-26T03:08:58;1.13;;;0.93;;
5987;SDS011;3021;51.000;6.980;2024-02-26T03:11:24;1.48;;;1.27;;
5987;SDS011;3021;51.000;6.980;2024-02-26T03:13:51;1.10;;;0.90;;
5987;SDS011;3021;51.000;6.980;2024-02-26T03:16:17;2.42;;;1.00;;
5987;SDS011;3021;51.000;6.980;2024-02-26T03:18:43;5.35;;;1.30;;
5987;SDS011;3021;51.000;6.980;2024-02-26T03:21:08;3.10;;;1.15;;
5987;SDS011;3021;51.000;6.980;2024-02-26T03:23:33;1.98;;;1.17;;
5987;SDS011;3021;51.000;6.980;2024-02-26T03:26:02;0.77;;;0.77;;
5987;SDS011;3021;51.000;6.980;2024-02-26T03:28:30;1.65;;;0.95;;
5987;SDS011;3021;51.000;6.980;2024-02-26T03:30:58;2.35;;;1.17;;
5987;SDS011;3021;51.000;6.980;2024-02-26T03:33:23;2.08;;;1.23;;
5987;SDS011;3021;51.000;6.980;2024-02-26T03:35:49;1.60;;;1.17;;
5987;SDS011;3021;51.000;6.980;2024-02-26T03:38:14;1.80;;;1.20;;
5987;SDS011;3021;51.000;6.980;2024-02-26T03:40:39;1.85;;;1.15;;
5987;SDS011;3021;51.000;6.980;2024-02-26T03:43:05;1.33;;;1.02;;
5987;SDS011;3021;51.000;6.980;2024-02-26T03:45:32;1.27;;;1.10;;
5987;SDS011;3021;51.000;6.980;2024-02-26T03:47:57;2.42;;;1.25;;
5987;SDS011;3021;51.000;6.980;2024-02-26T03:50:23;1.88;;;1.20;;
5987;SDS011;3021;51.000;6.980;2024-02-26T03:52:48;1.80;;;1.00;;
5987;SDS011;3021;51.000;6.980;2024-02-26T03:55:14;1.52;;;1.23;;
5987;SDS011;3021;51.000;6.980;2024-02-26T03:57:39;1.67;;;1.20;;
5987;SDS011;3021;51.000;6.980;2024-02-26T04:00:05;3.65;;;1.23;;
5987;SDS011;3021;51.000;6.980;2024-02-26T04:02:31;0.95;;;0.95;;
5987;SDS011;3021;51.000;6.980;2024-02-26T04:04:56;4.90;;;1.20;;
5987;SDS011;3021;51.000;6.980;2024-02-26T04:07:22;1.80;;;1.27;;
5987;SDS011;3021;51.000;6.980;2024-02-26T04:09:47;1.88;;;1.10;;
5987;SDS011;3021;51.000;6.980;2024-02-26T04:12:13;2.95;;;1.33;;
5987;SDS011;3021;51.000;6.980;2024-02-26T04:14:38;2.42;;;1.20;;
5987;SDS011;3021;51.000;6.980;2024-02-26T04:17:03;1.52;;;1.27;;
5987;SDS011;3021;51.000;6.980;2024-02-26T04:19:29;2.28;;;1.30;;
5987;SDS011;3021;51.000;6.980;2024-02-26T04:21:55;4.28;;;1.30;;
5987;SDS011;3021;51.000;6.980;2024-02-26T04:24:20;3.42;;;1.52;;
5987;SDS011;3021;51.000;6.980;2024-02-26T04:26:45;3.38;;;1.35;;
5987;SDS011;3021;51.000;6.980;2024-02-26T04:29:11;2.58;;;1.20;;
5987;SDS011;3021;51.000;6.980;2024-02-26T04:31:37;2.38;;;1.20;;
5987;SDS011;3021;51.000;6.980;2024-02-26T04:34:03;2.72;;;1.35;;
5987;SDS011;3021;51.000;6.980;2024-02-26T04:36:28;1.75;;;1.20;;
5987;SDS011;3021;51.000;6.980;2024-02-26T04:38:53;2.70;;;1.63;;
5987;SDS011;3021;51.000;6.980;2024-02-26T04:41:22;1.80;;;1.30;;
5987;SDS011;3021;51.000;6.980;2024-02-26T04:43:47;1.95;;;1.42;;
5987;SDS011;3021;51.000;6.980;2024-02-26T04:46:12;2.47;;;1.60;;
5987;SDS011;3021;51.000;6.980;2024-02-26T04:48:38;2.05;;;1.60;;
5987;SDS011;3021;51.000;6.980;2024-02-26T04:51:04;3.53;;;1.40;;
5987;SDS011;3021;51.000;6.980;2024-02-26T04:53:29;2.25;;;1.25;;
5987;SDS011;3021;51.000;6.980;2024-02-26T04:55:55;2.58;;;1.67;;
5987;SDS011;3021;51.000;6.980;2024-02-26T04:58:20;6.13;;;1.42;;
5987;SDS011;3021;51.000;6.980;2024-02-26T05:00:45;3.08;;;1.88;;
5987;SDS011;3021;51.000;6.980;2024-02-26T05:03:11;2.47;;;1.52;;
5987;SDS011;3021;51.000;6.980;2024-02-26T05:05:40;3.30;;;1.67;;
5987;SDS011;3021;51.000;6.980;2024-02-26T05:08:09;2.20;;;1.58;;
5987;SDS011;3021;51.000;6.980;2024-02-26T05:10:34;2.53;;;1.90;;
5987;SDS011;3021;51.000;6.980;2024-02-26T05:13:04;2.78;;;1.70;;
5987;SDS011;3021;51.000;6.980;2024-02-26T05:15:29;3.35;;;1.65;;
5987;SDS011;3021;51.000;6.980;2024-02-26T05:17:54;2.78;;;1.63;;
5987;SDS011;3021;51.000;6.980;2024-02-26T05:20:20;1.63;;;1.27;;
5987;SDS011;3021;51.000;6.980;2024-02-26T05:22:45;3.22;;;1.75;;
5987;SDS011;3021;51.000;6.980;2024-02-26T05:25:10;2.00;;;1.45;;
5987;SDS011;3021;51.000;6.980;2024-02-26T05:27:36;1.77;;;1.40;;
5987;SDS011;3021;51.000;6.980;2024-02-26T05:30:01;2.67;;;1.50;;
5987;SDS011;3021;51.000;6.980;2024-02-26T05:32:26;3.42;;;1.35;;
5987;SDS011;3021;51.000;6.980;2024-02-26T05:34:52;4.15;;;1.67;;
5987;SDS011;3021;51.000;6.980;2024-02-26T05:37:18;2.85;;;1.50;;
5987;SDS011;3021;51.000;6.980;2024-02-26T05:39:43;2.00;;;1.45;;
5987;SDS011;3021;51.000;6.980;2024-02-26T05:42:08;4.50;;;1.75;;
5987;SDS011;3021;51.000;6.980;2024-02-26T05:44:34;2.08;;;1.52;;
5987;SDS011;3021;51.000;6.980;2024-02-26T05:46:59;2.95;;;1.50;;
5987;SDS011;3021;51.000;6.980;2024-02-26T05:49:24;4.03;;;1.70;;
5987;SDS011;3021;51.000;6.980;2024-02-26T05:51:50;1.40;;;1.30;;
5987;SDS011;3021;51.000;6.980;2024-02-26T05:54:15;2.85;;;1.70;;
5987;SDS011;3021;51.000;6.980;2024-02-26T05:56:40;3.13;;;1.50;;
5987;SDS011;3021;51.000;6.980;2024-02-26T05:59:06;4.68;;;1.73;;
5987;SDS011;3021;51.000;6.980;2024-02-26T06:01:31;3.55;;;1.70;;
5987;SDS011;3021;51.000;6.980;2024-02-26T06:03:58;5.80;;;1.40;;
5987;SDS011;3021;51.000;6.980;2024-02-26T06:06:23;3.92;;;1.70;;
5987;SDS011;3021;51.000;6.980;2024-02-26T06:08:48;5.03;;;1.60;;
5987;SDS011;3021;51.000;6.980;2024-02-26T06:11:14;2.97;;;2.05;;
5987;SDS011;3021;51.000;6.980;2024-02-26T06:13:40;2.38;;;1.60;;
5987;SDS011;3021;51.000;6.980;2024-02-26T06:16:05;2.58;;;1.60;;
5987;SDS011;3021;51.000;6.980;2024-02-26T06:18:32;3.90;;;1.90;;
5987;SDS011;3021;51.000;6.980;2024-02-26T06:20:58;2.63;;;1.80;;
5987;SDS011;3021;51.000;6.980;2024-02-26T06:23:23;3.95;;;1.70;;
5987;SDS011;3021;51.000;6.980;2024-02-26T06:25:49;4.28;;;2.22;;
5987;SDS011;3021;51.000;6.980;2024-02-26T06:28:14;5.47;;;1.80;;
5987;SDS011;3021;51.000;6.980;2024-02-26T06:30:39;1.98;;;1.70;;
5987;SDS011;3021;51.000;6.980;2024-02-26T06:33:04;3.15;;;2.13;;
5987;SDS011;3021;51.000;6.980;2024-02-26T06:35:30;2.10;;;1.65;;
5987;SDS011;3021;51.000;6.980;2024-02-26T06:37:55;4.15;;;1.80;;
5987;SDS011;3021;51.000;6.980;2024-02-26T06:40:21;2.53;;;1.80;;
5987;SDS011;3021;51.000;6.980;2024-02-26T06:42:46;3.28;;;2.00;;
5987;SDS011;3021;51.000;6.980;2024-02-26T06:45:12;2.80;;;1.85;;
5987;SDS011;3021;51.000;6.980;2024-02-26T06:47:37;2.55;;;1.77;;
5987;SDS011;3021;51.000;6.980;2024-02-26T06:50:02;4.85;;;1.77;;
5987;SDS011;3021;51.000;6.980;2024-02-26T06:52:28;4.68;;;2.25;;
5987;SDS011;3021;51.000;6.980;2024-02-26T06:54:53;2.75;;;1.80;;
5987;SDS011;3021;51.000;6.980;2024-02-26T06:57:19;2.78;;;1.80;;
5987;SDS011;3021;51.000;6.980;2024-02-26T06:59:45;4.00;;;2.42;;
5987;SDS011;3021;51.000;6.980;2024-02-26T07:02:12;4.40;;;2.35;;
5987;SDS011;3021;51.000;6.980;2024-02-26T07:04:38;6.05;;;2.00;;
5987;SDS011;3021;51.000;6.980;2024-02-26T07:07:03;3.53;;;1.88;;
5987;SDS011;3021;51.000;6.980;2024-02-26T07:09:29;2.88;;;1.83;;
5987;SDS011;3021;51.000;6.980;2024-02-26T07:11:54;3.55;;;2.25;;
5987;SDS011;3021;51.000;6.980;2024-02-26T07:14:19;2.58;;;2.00;;
5987;SDS011;3021;51.000;6.980;2024-02-26T07:16:45;6.15;;;2.13;;
5987;SDS011;3021;51.000;6.980;2024-02-26T07:19:10;3.28;;;1.90;;
5987;SDS011;3021;51.000;6.980;2024-02-26T07:21:35;4.13;;;2.33;;
5987;SDS011;3021;51.000;6.980;2024-02-26T07:24:01;3.67;;;1.65;;
5987;SDS011;3021;51.000;6.980;2024-02-26T07:26:26;4.03;;;1.85;;
5987;SDS011;3021;51.000;6.980;2024-02-26T07:28:52;8.05;;;2.47;;
5987;SDS011;3021;51.000;6.980;2024-02-26T07:31:17;4.43;;;2.15;;
5987;SDS011;3021;51.000;6.980;2024-02-26T07:33:43;2.45;;;2.08;;
5987;SDS011;3021;51.000;6.980;2024-02-26T07:36:08;2.95;;;2.05;;
5987;SDS011;3021;51.000;6.980;2024-02-26T07:38:33;3.15;;;2.25;;
5987;SDS011;3021;51.000;6.980;2024-02-26T07:40:59;68.88;;;25.75;;
5987;SDS011;3021;51.000;6.980;2024-02-26T07:43:27;8.48;;;2.63;;
5987;SDS011;3021;51.000;6.980;2024-02-26T07:45:52;2.42;;;1.85;;
5987;SDS011;3021;51.000;6.980;2024-02-26T07:48:17;3.08;;;2.05;;
5987;SDS011;3021;51.000;6.980;2024-02-26T07:50:43;3.15;;;2.10;;
5987;SDS011;3021;51.000;6.980;2024-02-26T07:53:08;2.35;;;1.90;;
5987;SDS011;3021;51.000;6.980;2024-02-26T07:55:33;4.68;;;1.75;;
5987;SDS011;3021;51.000;6.980;2024-02-26T07:57:58;4.47;;;2.10;;
5987;SDS011;3021;51.000;6.980;2024-02-26T08:00:24;3.30;;;2.30;;
5987;SDS011;3021;51.000;6.980;2024-02-26T08:02:49;2.58;;;1.98;;
5987;SDS011;3021;51.000;6.980;2024-02-26T08:05:14;2.65;;;2.10;;
5987;SDS011;3021;51.000;6.980;2024-02-26T08:07:40;2.75;;;2.00;;
5987;SDS011;3021;51.000;6.980;2024-02-26T08:10:06;3.13;;;2.10;;
5987;SDS011;3021;51.000;6.980;2024-02-26T08:12:32;3.13;;;2.10;;
5987;SDS011;3021;51.000;6.980;2024-02-26T08:14:57;2.72;;;1.80;;
5987;SDS011;3021;51.000;6.980;2024-02-26T08:17:23;3.67;;;2.03;;
5987;SDS011;3021;51.000;6.980;2024-02-26T08:19:49;4.20;;;1.90;;
5987;SDS011;3021;51.000;6.980;2024-02-26T08:22:14;2.72;;;1.98;;
5987;SDS011;3021;51.000;6.980;2024-02-26T08:24:41;2.00;;;1.63;;
5987;SDS011;3021;51.000;6.980;2024-02-26T08:27:07;3.38;;;2.13;;
5987;SDS011;3021;51.000;6.980;2024-02-26T08:29:32;3.42;;;2.20;;
5987;SDS011;3021;51.000;6.980;2024-02-26T08:31:58;3.10;;;2.08;;
5987;SDS011;3021;51.000;6.980;2024-02-26T08:34:23;3.83;;;2.30;;
5987;SDS011;3021;51.000;6.980;2024-02-26T08:36:48;2.97;;;2.00;;
5987;SDS011;3021;51.000;6.980;2024-02-26T08:39:14;2.42;;;1.88;;
5987;SDS011;3021;51.000;6.980;2024-02-26T08:41:39;1.73;;;1.60;;
5987;SDS011;3021;51.000;6.980;2024-02-26T08:44:04;2.83;;;1.90;;
5987;SDS011;3021;51.000;6.980;2024-02-26T08:46:30;4.85;;;1.80;;
5987;SDS011;3021;51.000;6.980;2024-02-26T08:48:56;2.28;;;2.08;;
5987;SDS011;3021;51.000;6.980;2024-02-26T08:51:21;3.55;;;2.33;;
5987;SDS011;3021;51.000;6.980;2024-02-26T08:53:46;5.90;;;2.13;;
5987;SDS011;3021;51.000;6.980;2024-02-26T08:56:12;3.28;;;2.20;;
5987;SDS011;3021;51.000;6.980;2024-02-26T08:58:41;2.63;;;1.95;;
5987;SDS011;3021;51.000;6.980;2024-02-26T09:01:07;2.83;;;2.10;;
5987;SDS011;3021;51.000;6.980;2024-02-26T09:03:32;2.70;;;2.10;;
5987;SDS011;3021;51.000;6.980;2024-02-26T09:05:58;4.30;;;2.25;;
5987;SDS011;3021;51.000;6.980;2024-02-26T09:08:23;2.72;;;2.03;;
5987;SDS011;3021;51.000;6.980;2024-02-26T09:10:49;3.53;;;2.28;;
5987;SDS011;3021;51.000;6.980;2024-02-26T09:13:14;3.88;;;2.22;;
5987;SDS011;3021;51.000;6.980;2024-02-26T09:15:40;3.53;;;2.47;;
5987;SDS011;3021;51.000;6.980;2024-02-26T09:18:05;2.92;;;2.15;;
5987;SDS011;3021;51.000;6.980;2024-02-26T09:20:31;2.67;;;2.15;;
5987;SDS011;3021;51.000;6.980;2024-02-26T09:22:56;5.80;;;2.35;;
5987;SDS011;3021;51.000;6.980;2024-02-26T09:25:21;4.03;;;2.33;;
5987;SDS011;3021;51.000;6.980;2024-02-26T09:27:47;2.85;;;2.13;;
5987;SDS011;3021;51.000;6.980;2024-02-26T09:30:13;19.85;;;6.93;;
5987;SDS011;3021;51.000;6.980;2024-02-26T09:32:39;5.78;;;2.58;;
5987;SDS011;3021;51.000;6.980;2024-02-26T09:35:07;4.38;;;2.30;;
5987;SDS011;3021;51.000;6.980;2024-02-26T09:37:33;5.07;;;2.95;;
5987;SDS011;3021;51.000;6.980;2024-02-26T09:39:59;7.00;;;2.53;;
5987;SDS011;3021;51.000;6.980;2024-02-26T09:42:25;5.80;;;2.60;;
5987;SDS011;3021;51.000;6.980;2024-02-26T09:44:51;4.18;;;2.60;;
5987;SDS011;3021;51.000;6.980;2024-02-26T09:47:21;3.83;;;2.35;;
5987;SDS011;3021;51.000;6.980;2024-02-26T09:49:48;2.72;;;2.10;;
5987;SDS011;3021;51.000;6.980;2024-02-26T09:52:15;4.45;;;2.40;;
5987;SDS011;3021;51.000;6.980;2024-02-26T09:54:41;4.68;;;2.75;;
5987;SDS011;3021;51.000;6.980;2024-02-26T09:57:11;5.18;;;2.67;;
5987;SDS011;3021;51.000;6.980;2024-02-26T09:59:40;3.17;;;2.25;;
5987;SDS011;3021;51.000;6.980;2024-02-26T10:02:08;2.80;;;1.92;;
5987;SDS011;3021;51.000;6.980;2024-02-26T10:04:37;3.53;;;2.45;;
5987;SDS011;3021;51.000;6.980;2024-02-26T10:07:04;4.25;;;2.47;;
5987;SDS011;3021;51.000;6.980;2024-02-26T10:09:34;4.75;;;2.30;;
5987;SDS011;3021;51.000;6.980;2024-02-26T10:12:00;4.63;;;2.50;;
5987;SDS011;3021;51.000;6.980;2024-02-26T10:14:25;3.25;;;2.30;;
5987;SDS011;3021;51.000;6.980;2024-02-26T10:16:51;4.32;;;2.55;;
5987;SDS011;3021;51.000;6.980;2024-02-26T10:19:26;4.75;;;2.50;;
5987;SDS011;3021;51.000;6.980;2024-02-26T10:21:59;3.90;;;2.67;;
5987;SDS011;3021;51.000;6.980;2024-02-26T10:24:26;5.55;;;2.70;;
5987;SDS011;3021;51.000;6.980;2024-02-26T10:26:53;4.50;;;2.50;;
5987;SDS011;3021;51.000;6.980;2024-02-26T10:29:20;3.67;;;2.13;;
5987;SDS011;3021;51.000;6.980;2024-02-26T10:31:46;4.22;;;2.50;;
5987;SDS011;3021;51.000;6.980;2024-02-26T10:34:11;3.50;;;2.60;;
5987;SDS011;3021;51.000;6.980;2024-02-26T10:36:37;3.78;;;2.13;;
5987;SDS011;3021;51.000;6.980;2024-02-26T10:39:06;4.93;;;2.40;;
5987;SDS011;3021;51.000;6.980;2024-02-26T10:41:32;3.70;;;2.40;;
5987;SDS011;3021;51.000;6.980;2024-02-26T10:43:58;4.70;;;2.50;;
5987;SDS011;3021;51.000;6.980;2024-02-26T10:46:25;5.28;;;2.80;;
5987;SDS011;3021;51.000;6.980;2024-02-26T10:48:50;3.65;;;2.67;;
5987;SDS011;3021;51.000;6.980;2024-02-26T10:51:17;2.60;;;2.20;;
5987;SDS011;3021;51.000;6.980;2024-02-26T10:53:47;5.13;;;2.65;;
5987;SDS011;3021;51.000;6.980;2024-02-26T10:56:14;5.32;;;2.60;;
5987;SDS011;3021;51.000;6.980;2024-02-26T10:58:43;3.83;;;2.45;;
5987;SDS011;3021;51.000;6.980;2024-02-26T11:01:11;5.55;;;2.95;;
5987;SDS011;3021;51.000;6.980;2024-02-26T11:03:37;6.38;;;2.80;;
5987;SDS011;3021;51.000;6.980;2024-02-26T11:06:04;4.78;;;2.30;;
5987;SDS011;3021;51.000;6.980;2024-02-26T11:08:30;3.45;;;2.50;;
5987;SDS011;3021;51.000;6.980;2024-02-26T11:10:57;4.20;;;2.90;;
5987;SDS011;3021;51.000;6.980;2024-02-26T11:13:23;3.35;;;2.50;;
5987;SDS011;3021;51.000;6.980;2024-02-26T11:15:54;5.00;;;2.78;;
5987;SDS011;3021;51.000;6.980;2024-02-26T11:18:22;7.57;;;2.63;;
5987;SDS011;3021;51.000;6.980;2024-02-26T11:20:48;4.13;;;2.53;;
5987;SDS011;3021;51.000;6.980;2024-02-26T11:23:15;2.85;;;2.30;;
5987;SDS011;3021;51.000;6.980;2024-02-26T11:25:40;5.22;;;3.10;;
5987;SDS011;3021;51.000;6.980;2024-02-26T11:28:08;2.67;;;2.20;;
5987;SDS011;3021;51.000;6.980;2024-02-26T11:30:38;4.60;;;2.58;;
5987;SDS011;3021;51.000;6.980;2024-02-26T11:33:07;6.20;;;2.63;;
5987;SDS011;3021;51.000;6.980;2024-02-26T11:35:36;4.53;;;2.67;;
5987;SDS011;3021;51.000;6.980;2024-02-26T11:38:01;4.50;;;2.50;;
5987;SDS011;3021;51.000;6.980;2024-02-26T11:40:27;4.63;;;2.55;;
5987;SDS011;3021;51.000;6.980;2024-02-26T11:42:53;3.08;;;2.17;;
5987;SDS011;3021;51.000;6.980;2024-02-26T11:48:13;3.78;;;2.40;;
5987;SDS011;3021;51.000;6.980;2024-02-26T11:50:49;3.20;;;2.50;;
5987;SDS011;3021;51.000;6.980;2024-02-26T11:53:23;3.65;;;2.70;;
5987;SDS011;3021;51.000;6.980;2024-02-26T11:58:59;3.53;;;2.60;;
5987;SDS011;3021;51.000;6.980;2024-02-26T12:01:45;4.20;;;2.67;;
5987;SDS011;3021;51.000;6.980;2024-02-26T12:04:22;5.80;;;2.83;;
5987;SDS011;3021;51.000;6.980;2024-02-26T12:07:00;6.22;;;2.58;;
5987;SDS011;3021;51.000;6.980;2024-02-26T12:11:57;4.22;;;2.83;;
5987;SDS011;3021;51.000;6.980;2024-02-26T12:14:26;3.83;;;2.70;;
5987;SDS011;3021;51.000;6.980;2024-02-26T12:16:52;4.35;;;2.75;;
5987;SDS011;3021;51.000;6.980;2024-02-26T12:19:18;6.72;;;3.30;;
5987;SDS011;3021;51.000;6.980;2024-02-26T12:21:44;4.22;;;2.60;;
5987;SDS011;3021;51.000;6.980;2024-02-26T12:24:10;4.97;;;2.63;;
5987;SDS011;3021;51.000;6.980;2024-02-26T12:26:39;6.88;;;2.78;;
5987;SDS011;3021;51.000;6.980;2024-02-26T12:29:05;6.55;;;2.95;;
5987;SDS011;3021;51.000;6.980;2024-02-26T12:31:34;4.38;;;2.92;;
5987;SDS011;3021;51.000;6.980;2024-02-26T12:34:02;5.93;;;3.33;;
5987;SDS011;3021;51.000;6.980;2024-02-26T12:36:28;4.38;;;3.05;;
5987;SDS011;3021;51.000;6.980;2024-02-26T12:38:53;4.60;;;3.22;;
5987;SDS011;3021;51.000;6.980;2024-02-26T12:41:19;5.85;;;2.78;;
5987;SDS011;3021;51.000;6.980;2024-02-26T12:43:46;4.18;;;2.60;;
5987;SDS011;3021;51.000;6.980;2024-02-26T12:46:11;5.20;;;3.08;;
5987;SDS011;3021;51.000;6.980;2024-02-26T12:48:38;4.72;;;3.00;;
5987;SDS011;3021;51.000;6.980;2024-02-26T12:51:04;3.58;;;2.63;;
5987;SDS011;3021;51.000;6.980;2024-02-26T12:53:30;4.90;;;2.92;;
5987;SDS011;3021;51.000;6.980;2024-02-26T12:55:56;5.40;;;3.00;;
5987;SDS011;3021;51.000;6.980;2024-02-26T12:58:22;4.95;;;2.90;;
5987;SDS011;3021;51.000;6.980;2024-02-26T13:00:50;3.83;;;3.17;;
5987;SDS011;3021;51.000;6.980;2024-02-26T13:03:17;5.28;;;3.17;;
5987;SDS011;3021;51.000;6.980;2024-02-26T13:05:43;6.97;;;3.35;;
5987;SDS011;3021;51.000;6.980;2024-02-26T13:08:09;5.55;;;3.50;;
5987;SDS011;3021;51.000;6.980;2024-02-26T13:10:35;5.30;;;3.20;;
5987;SDS011;3021;51.000;6.980;2024-02-26T13:13:01;5.00;;;3.53;;
5987;SDS011;3021;51.000;6.980;2024-02-26T13:15:27;7.13;;;4.03;;
5987;SDS011;3021;51.000;6.980;2024-02-26T13:17:53;5.95;;;3.65;;
5987;SDS011;3021;51.000;6.980;2024-02-26T13:20:30;7.40;;;3.67;;
5987;SDS011;3021;51.000;6.980;2024-02-26T13:25:27;7.13;;;3.78;;
5987;SDS011;3021;51.000;6.980;2024-02-26T13:27:53;5.40;;;3.53;;
5987;SDS011;3021;51.000;6.980;2024-02-26T13:30:29;6.93;;;3.97;;
5987;SDS011;3021;51.000;6.980;2024-02-26T13:32:54;5.53;;;4.00;;
5987;SDS011;3021;51.000;6.980;2024-02-26T13:35:19;5.30;;;3.72;;
5987;SDS011;3021;51.000;6.980;2024-02-26T13:37:45;4.80;;;3.78;;
5987;SDS011;3021;51.000;6.980;2024-02-26T13:40:10;8.18;;;4.00;;
5987;SDS011;3021;51.000;6.980;2024-02-26T13:42:36;6.28;;;4.55;;
5987;SDS011;3021;51.000;6.980;2024-02-26T13:45:02;8.63;;;5.15;;
5987;SDS011;3021;51.000;6.980;2024-02-26T13:47:31;10.02;;;5.20;;
5987;SDS011;3021;51.000;6.980;2024-02-26T13:49:57;8.30;;;5.53;;
5987;SDS011;3021;51.000;6.980;2024-02-26T13:52:22;8.95;;;5.90;;
5987;SDS011;3021;51.000;6.980;2024-02-26T13:54:48;9.27;;;5.78;;
5987;SDS011;3021;51.000;6.980;2024-02-26T13:57:14;9.45;;;5.82;;
5987;SDS011;3021;51.000;6.980;2024-02-26T13:59:39;11.35;;;5.63;;
5987;SDS011;3021;51.000;6.980;2024-02-26T14:02:07;8.93;;;5.85;;
5987;SDS011;3021;51.000;6.980;2024-02-26T14:04:33;8.38;;;5.68;;
5987;SDS011;3021;51.000;6.980;2024-02-26T14:06:58;10.50;;;6.40;;
5987;SDS011;3021;51.000;6.980;2024-02-26T14:09:24;12.50;;;6.97;;
5987;SDS011;3021;51.000;6.980;2024-02-26T14:11:49;13.55;;;5.93;;
5987;SDS011;3021;51.000;6.980;2024-02-26T14:14:14;9.88;;;6.70;;
5987;SDS011;3021;51.000;6.980;2024-02-26T14:16:40;9.70;;;6.05;;
5987;SDS011;3021;51.000;6.980;2024-02-26T14:19:05;11.32;;;6.57;;
5987;SDS011;3021;51.000;6.980;2024-02-26T14:21:31;11.10;;;6.32;;
5987;SDS011;3021;51.000;6.980;2024-02-26T14:23:56;10.88;;;7.13;;
5987;SDS011;3021;51.000;6.980;2024-02-26T14:26:22;13.02;;;7.35;;
5987;SDS011;3021;51.000;6.980;2024-02-26T14:28:48;11.52;;;6.63;;
5987;SDS011;3021;51.000;6.980;2024-02-26T14:31:16;12.98;;;7.25;;
5987;SDS011;3021;51.000;6.980;2024-02-26T14:33:42;12.13;;;7.43;;
5987;SDS011;3021;51.000;6.980;2024-02-26T14:36:08;14.27;;;7.20;;
5987;SDS011;3021;51.000;6.980;2024-02-26T14:38:33;12.23;;;7.50;;
5987;SDS011;3021;51.000;6.980;2024-02-26T14:40:59;13.30;;;8.05;;
5987;SDS011;3021;51.000;6.980;2024-02-26T14:43:24;12.20;;;7.78;;
5987;SDS011;3021;51.000;6.980;2024-02-26T14:45:49;11.88;;;7.88;;
5987;SDS011;3021;51.000;6.980;2024-02-26T14:48:15;14.85;;;7.28;;
5987;SDS011;3021;51.000;6.980;2024-02-26T14:50:40;11.65;;;6.80;;
5987;SDS011;3021;51.000;6.980;2024-02-26T14:53:05;13.10;;;7.38;;
5987;SDS011;3021;51.000;6.980;2024-02-26T14:55:31;10.60;;;6.75;;
5987;SDS011;3021;51.000;6.980;2024-02-26T14:57:57;11.20;;;6.93;;
5987;SDS011;3021;51.000;6.980;2024-02-26T15:00:22;11.55;;;7.32;;
5987;SDS011;3021;51.000;6.980;2024-02-26T15:02:48;11.60;;;6.65;;
5987;SDS011;3021;51.000;6.980;2024-02-26T15:05:13;9.93;;;6.95;;
5987;SDS011;3021;51.000;6.980;2024-02-26T15:07:38;13.05;;;8.38;;
5987;SDS011;3021;51.000;6.980;2024-02-26T15:10:05;12.75;;;7.85;;
5987;SDS011;3021;51.000;6.980;2024-02-26T15:12:32;14.23;;;7.60;;
5987;SDS011;3021;51.000;6.980;2024-02-26T15:14:57;13.43;;;8.68;;
5987;SDS011;3021;51.000;6.980;2024-02-26T15:17:23;13.23;;;8.20;;
5987;SDS011;3021;51.000;6.980;2024-02-26T15:19:49;16.63;;;8.30;;